This is the latest recevied weather packets stored in our database for station/object 9M4RBN-3. If no packets are shown the sender has not sent any weather packets the latest 10 day(s).
| Time | Temp. | Humidity | Pressure | Rain* | Wind** | Luminosity | Snow |
|---|---|---|---|---|---|---|---|
| 1788021250 | 26.67° C | 59% | 1017.9 hPa | - | - | - | - |
| 1788020350 | 25.56° C | 53% | 1017.9 hPa | - | - | - | - |
| 1788019450 | 25° C | 46% | 1017.9 hPa | - | - | - | - |
| 1788018550 | 25° C | 46% | 1017.7 hPa | - | - | - | - |
| 1788017651 | 25° C | 48% | 1017.7 hPa | - | - | - | - |
| 1788016751 | 25° C | 46% | 1017.6 hPa | - | - | - | - |
| 1788015851 | 25° C | 46% | 1017.5 hPa | - | - | - | - |
| 1788014951 | 25.56° C | 47% | 1017.4 hPa | - | - | - | - |
| 1788014051 | 25.56° C | 47% | 1017.3 hPa | - | - | - | - |
| 1788013151 | 25.56° C | 47% | 1017.3 hPa | - | - | - | - |
| 1788012251 | 25.56° C | 48% | 1017.1 hPa | - | - | - | - |
| 1788011351 | 26.11° C | 48% | 1016.8 hPa | - | - | - | - |
| 1788010451 | 26.11° C | 48% | 1016.8 hPa | - | - | - | - |
| 1788009551 | 26.11° C | 48% | 1016.8 hPa | - | - | - | - |
| 1788008651 | 26.67° C | 49% | 1016.6 hPa | - | - | - | - |
| 1788007751 | 26.67° C | 50% | 1016.4 hPa | - | - | - | - |
| 1788006851 | 27.22° C | 54% | 1016.1 hPa | - | - | - | - |
| 1788005951 | 27.78° C | 62% | 1016 hPa | - | - | - | - |
| 1788005051 | 27.78° C | 78% | 1015.8 hPa | - | - | - | - |
| 1788004151 | 26.67° C | 76% | 1015.6 hPa | - | - | - | - |
| 1788003250 | 26.11° C | 63% | 1015.3 hPa | - | - | - | - |
| 1788002350 | 25° C | 41% | 1015.4 hPa | - | - | - | - |
| 1788001450 | 25.56° C | 40% | 1015.1 hPa | - | - | - | - |
| 1788000550 | 25.56° C | 39% | 1015.2 hPa | - | - | - | - |
| 1787999650 | 25.56° C | 39% | 1014.8 hPa | - | - | - | - |
* Rain since midnight (hover to see other rain measurements)
** Current wind speed in m/s (hover to see current wind gust speed)